createdAt,value
2019-02-22T00:00:34.386Z,993.42
2019-02-22T00:01:34.389Z,993.38
2019-02-22T00:02:34.363Z,993.44
2019-02-22T00:03:34.361Z,993.34
2019-02-22T00:04:34.344Z,993.40
2019-02-22T00:05:34.334Z,993.37
2019-02-22T00:06:34.322Z,993.42
2019-02-22T00:07:34.324Z,993.41
2019-02-22T00:08:34.302Z,993.44
2019-02-22T00:09:34.293Z,993.53
2019-02-22T00:10:34.279Z,993.44
2019-02-22T00:11:34.266Z,993.45
2019-02-22T00:12:34.257Z,993.37
2019-02-22T00:13:34.273Z,993.45
2019-02-22T00:14:34.235Z,993.48
2019-02-22T00:15:36.294Z,993.41
2019-02-22T00:16:34.229Z,993.48
2019-02-22T00:17:34.206Z,993.46
2019-02-22T00:18:34.192Z,993.46
2019-02-22T00:19:34.360Z,993.45
2019-02-22T00:20:34.174Z,993.41
2019-02-22T00:21:34.169Z,993.42
2019-02-22T00:22:34.149Z,993.45
2019-02-22T00:23:34.138Z,993.43
2019-02-22T00:24:34.128Z,993.47
2019-02-22T00:25:34.137Z,993.42
2019-02-22T00:26:34.114Z,993.43
2019-02-22T00:27:34.101Z,993.49
2019-02-22T00:28:34.088Z,993.51
2019-02-22T00:29:34.073Z,993.55
2019-02-22T00:30:34.066Z,993.52
2019-02-22T00:31:34.067Z,993.52
2019-02-22T00:32:34.041Z,993.49
2019-02-22T00:33:34.034Z,993.52
2019-02-22T00:34:34.034Z,993.50
2019-02-22T00:35:34.023Z,993.56
2019-02-22T00:36:34.081Z,993.54
2019-02-22T00:37:34.008Z,993.56
2019-02-22T00:38:33.977Z,993.68
2019-02-22T00:39:33.969Z,993.62
2019-02-22T00:40:33.960Z,993.69
2019-02-22T00:41:33.945Z,993.66
2019-02-22T00:42:33.936Z,993.75
2019-02-22T00:43:33.943Z,993.74
2019-02-22T00:44:33.915Z,993.84
2019-02-22T00:45:33.904Z,993.76
2019-02-22T00:46:33.891Z,993.86
2019-02-22T00:47:33.880Z,993.86
2019-02-22T00:48:33.871Z,993.91
2019-02-22T00:49:33.880Z,993.87
2019-02-22T00:50:33.848Z,993.92
2019-02-22T00:51:33.844Z,993.91
2019-02-22T00:52:33.826Z,993.90
2019-02-22T00:53:33.817Z,993.94
2019-02-22T00:54:33.809Z,993.98
2019-02-22T00:55:33.810Z,993.93
2019-02-22T00:56:33.784Z,993.94
2019-02-22T00:57:33.775Z,993.91
2019-02-22T00:58:33.766Z,993.95
2019-02-22T00:59:33.755Z,993.85
2019-02-22T01:00:33.743Z,993.80
2019-02-22T01:01:33.749Z,993.84
2019-02-22T01:02:33.721Z,993.79
2019-02-22T01:03:33.715Z,993.74
2019-02-22T01:04:33.698Z,993.76
2019-02-22T01:05:33.692Z,993.81
2019-02-22T01:06:33.676Z,993.89
2019-02-22T01:07:33.679Z,993.80
2019-02-22T01:08:33.656Z,993.85
2019-02-22T01:09:33.643Z,993.87
2019-02-22T01:10:33.631Z,993.80
2019-02-22T01:11:33.624Z,993.82
2019-02-22T01:12:33.611Z,993.83
2019-02-22T01:13:33.619Z,993.90
2019-02-22T01:14:33.592Z,993.86
2019-02-22T01:15:33.579Z,993.87
2019-02-22T01:16:33.570Z,993.84
2019-02-22T01:17:33.560Z,993.86
2019-02-22T01:18:33.547Z,993.94
2019-02-22T01:19:33.566Z,993.85
2019-02-22T01:20:33.535Z,993.88
2019-02-22T01:21:33.523Z,993.88
2019-02-22T01:22:33.511Z,993.96
2019-02-22T01:23:33.517Z,993.93
2019-02-22T01:24:33.485Z,993.94
2019-02-22T01:25:33.529Z,994.01
2019-02-22T01:26:33.466Z,993.93
2019-02-22T01:27:33.453Z,993.93
2019-02-22T01:28:33.443Z,993.96
2019-02-22T01:29:33.439Z,993.93
2019-02-22T01:30:33.421Z,993.95
2019-02-22T01:31:33.421Z,993.98
2019-02-22T01:32:33.401Z,993.96
2019-02-22T01:33:33.384Z,993.97
2019-02-22T01:34:33.379Z,993.99
2019-02-22T01:35:33.370Z,994.03
2019-02-22T01:36:33.367Z,994.05
2019-02-22T01:37:33.367Z,994.03
2019-02-22T01:38:33.340Z,994.01
2019-02-22T01:39:33.322Z,994.02
2019-02-22T01:40:43.004Z,994.01
2019-02-22T01:41:34.299Z,994.06
2019-02-22T01:42:33.300Z,994.03
2019-02-22T01:43:33.564Z,994.00
2019-02-22T01:44:33.271Z,994.01
2019-02-22T01:45:33.259Z,994.01
2019-02-22T01:46:33.261Z,994.03
2019-02-22T01:47:33.240Z,994.02
2019-02-22T01:48:33.230Z,994.03
2019-02-22T01:49:33.241Z,994.09
2019-02-22T01:50:33.207Z,994.10
2019-02-22T01:51:33.195Z,994.07
2019-02-22T01:52:33.180Z,994.14
2019-02-22T01:53:33.173Z,994.12
2019-02-22T01:54:33.159Z,994.09
2019-02-22T01:55:33.162Z,994.09
2019-02-22T01:56:33.150Z,994.10
2019-02-22T01:57:33.131Z,994.20
2019-02-22T01:58:33.122Z,994.16
2019-02-22T01:59:33.108Z,994.24
2019-02-22T02:00:33.095Z,994.24
2019-02-22T02:01:33.098Z,994.25
2019-02-22T02:02:33.077Z,994.20
2019-02-22T02:03:33.066Z,994.21
2019-02-22T02:04:33.053Z,994.21
2019-02-22T02:05:33.041Z,994.16
2019-02-22T02:06:33.031Z,994.19
2019-02-22T02:07:33.038Z,994.25
2019-02-22T02:08:33.009Z,994.22
2019-02-22T02:09:32.999Z,994.26
2019-02-22T02:10:32.990Z,994.28
2019-02-22T02:11:32.974Z,994.16
2019-02-22T02:12:32.970Z,994.24
2019-02-22T02:13:32.967Z,994.19
2019-02-22T02:14:32.951Z,994.24
2019-02-22T02:15:32.935Z,994.20
2019-02-22T02:16:32.923Z,994.22
2019-02-22T02:17:32.912Z,994.24
2019-02-22T02:18:32.904Z,994.24
2019-02-22T02:19:32.907Z,994.25
2019-02-22T02:20:32.902Z,994.28
2019-02-22T02:21:32.868Z,994.28
2019-02-22T02:22:32.859Z,994.28
2019-02-22T02:23:32.849Z,994.27
2019-02-22T02:24:32.836Z,994.28
2019-02-22T02:25:32.842Z,994.25
2019-02-22T02:26:32.857Z,994.24
2019-02-22T02:27:32.804Z,994.23
2019-02-22T02:28:32.791Z,994.23
2019-02-22T02:29:32.785Z,994.24
2019-02-22T02:30:32.770Z,994.26
2019-02-22T02:31:32.780Z,994.27
2019-02-22T02:32:32.749Z,994.25
2019-02-22T02:33:32.740Z,994.21
2019-02-22T02:34:32.731Z,994.24
2019-02-22T02:35:32.718Z,994.20
2019-02-22T02:36:32.705Z,994.25
2019-02-22T02:37:32.719Z,994.27
2019-02-22T02:38:32.687Z,994.24
2019-02-22T02:39:32.677Z,994.21
2019-02-22T02:40:32.666Z,994.21
2019-02-22T02:41:32.655Z,994.21
2019-02-22T02:42:32.643Z,994.12
2019-02-22T02:43:32.651Z,994.05
2019-02-22T02:44:32.619Z,994.15
2019-02-22T02:45:32.611Z,994.11
2019-02-22T02:46:32.600Z,994.16
2019-02-22T02:47:32.593Z,994.22
2019-02-22T02:48:32.578Z,994.20
2019-02-22T02:49:32.585Z,994.21
2019-02-22T02:50:32.564Z,994.22
2019-02-22T02:51:32.546Z,994.23
2019-02-22T02:52:32.536Z,994.23
2019-02-22T02:53:32.523Z,994.24
2019-02-22T02:54:32.518Z,994.27
2019-02-22T02:55:32.516Z,994.30
2019-02-22T02:56:32.491Z,994.19
2019-02-22T02:57:32.483Z,994.29
2019-02-22T02:58:32.473Z,994.29
2019-02-22T02:59:32.467Z,994.21
2019-02-22T03:00:32.451Z,994.15
2019-02-22T03:01:32.461Z,994.17
2019-02-22T03:02:32.431Z,994.15
2019-02-22T03:03:32.419Z,994.13
2019-02-22T03:04:32.409Z,994.14
2019-02-22T03:05:32.396Z,994.22
2019-02-22T03:06:32.390Z,994.19
2019-02-22T03:07:32.410Z,994.21
2019-02-22T03:08:32.366Z,994.16
2019-02-22T03:09:32.356Z,994.17
2019-02-22T03:10:32.345Z,994.16
2019-02-22T03:11:32.335Z,994.20
2019-02-22T03:12:32.325Z,994.15
2019-02-22T03:13:32.330Z,994.16
2019-02-22T03:14:32.304Z,994.21
2019-02-22T03:15:32.291Z,994.15
2019-02-22T03:16:32.277Z,994.17
2019-02-22T03:17:32.273Z,994.18
2019-02-22T03:18:32.262Z,994.18
2019-02-22T03:19:32.265Z,994.15
2019-02-22T03:20:32.240Z,994.14
2019-02-22T03:21:32.228Z,994.09
2019-02-22T03:22:32.221Z,994.11
2019-02-22T03:23:32.203Z,994.04
2019-02-22T03:24:32.194Z,993.98
2019-02-22T03:25:32.215Z,993.95
2019-02-22T03:26:32.178Z,993.98
2019-02-22T03:27:32.162Z,993.96
2019-02-22T03:28:32.156Z,993.94
2019-02-22T03:29:32.152Z,993.94
2019-02-22T03:30:32.146Z,993.94
2019-02-22T03:31:32.164Z,993.87
2019-02-22T03:32:32.110Z,993.84
2019-02-22T03:33:32.107Z,993.86
2019-02-22T03:34:32.094Z,993.83
2019-02-22T03:35:32.079Z,993.93
2019-02-22T03:36:32.069Z,993.95
2019-02-22T03:37:32.072Z,993.98
2019-02-22T03:38:32.048Z,993.88
2019-02-22T03:39:32.039Z,993.82
2019-02-22T03:40:32.034Z,993.82
2019-02-22T03:41:33.439Z,993.87
2019-02-22T03:42:32.012Z,993.84
2019-02-22T03:43:32.026Z,993.85
2019-02-22T03:44:31.981Z,993.88
2019-02-22T03:45:31.972Z,993.81
2019-02-22T03:46:31.966Z,993.96
2019-02-22T03:47:31.947Z,994.00
2019-02-22T03:48:31.934Z,994.05
2019-02-22T03:49:32.698Z,994.12
2019-02-22T03:50:31.919Z,994.17
2019-02-22T03:51:31.907Z,994.16
2019-02-22T03:52:31.897Z,994.28
2019-02-22T03:53:31.897Z,994.20
2019-02-22T03:54:31.886Z,994.29
2019-02-22T03:55:31.875Z,994.28
2019-02-22T03:56:31.859Z,994.31
2019-02-22T03:57:31.865Z,994.34
2019-02-22T03:58:31.829Z,994.33
2019-02-22T03:59:31.822Z,994.33
2019-02-22T04:00:31.809Z,994.24
2019-02-22T04:01:31.820Z,994.32
2019-02-22T04:02:31.785Z,994.23
2019-02-22T04:03:31.775Z,994.29
2019-02-22T04:04:31.768Z,994.26
2019-02-22T04:05:31.759Z,994.34
2019-02-22T04:06:31.743Z,994.31
2019-02-22T04:07:31.752Z,994.31
2019-02-22T04:08:31.723Z,994.27
2019-02-22T04:09:31.724Z,994.29
2019-02-22T04:10:31.703Z,994.27
2019-02-22T04:11:31.687Z,994.33
2019-02-22T04:12:31.682Z,994.26
2019-02-22T04:13:31.685Z,994.28
2019-02-22T04:14:31.668Z,994.22
2019-02-22T04:15:31.652Z,994.21
2019-02-22T04:16:31.639Z,994.23
2019-02-22T04:17:31.753Z,994.25
2019-02-22T04:18:31.623Z,994.27
2019-02-22T04:19:31.625Z,994.29
2019-02-22T04:20:31.599Z,994.19
2019-02-22T04:21:31.580Z,994.22
2019-02-22T04:22:31.576Z,994.19
2019-02-22T04:23:31.563Z,994.19
2019-02-22T04:24:31.555Z,994.22
2019-02-22T04:25:31.565Z,994.25
2019-02-22T04:26:31.526Z,994.20
2019-02-22T04:27:31.551Z,994.18
2019-02-22T04:28:31.517Z,994.12
2019-02-22T04:29:31.499Z,994.11
2019-02-22T04:30:31.483Z,994.03
2019-02-22T04:31:31.556Z,994.09
2019-02-22T04:32:31.468Z,994.15
2019-02-22T04:33:31.463Z,994.10
2019-02-22T04:34:31.442Z,994.15
2019-02-22T04:35:31.434Z,994.17
2019-02-22T04:36:31.421Z,994.19
2019-02-22T04:37:31.455Z,994.23
2019-02-22T04:38:31.406Z,994.13
2019-02-22T04:39:31.390Z,994.14
2019-02-22T04:40:31.378Z,994.13
2019-02-22T04:41:31.370Z,994.20
2019-02-22T04:42:31.366Z,994.18
2019-02-22T04:43:31.368Z,994.26
2019-02-22T04:44:31.340Z,994.26
2019-02-22T04:45:31.334Z,994.23
2019-02-22T04:46:31.325Z,994.30
2019-02-22T04:47:31.305Z,994.32
2019-02-22T04:48:31.300Z,994.35
2019-02-22T04:49:31.303Z,994.34
2019-02-22T04:50:31.273Z,994.28
2019-02-22T04:51:31.265Z,994.34
2019-02-22T04:52:31.259Z,994.36
2019-02-22T04:53:31.242Z,994.39
2019-02-22T04:54:31.259Z,994.38
2019-02-22T04:55:31.245Z,994.43
2019-02-22T04:56:31.237Z,994.46
2019-02-22T04:57:31.201Z,994.45
2019-02-22T04:58:31.207Z,994.41
2019-02-22T04:59:31.180Z,994.41
2019-02-22T05:00:31.164Z,994.41
2019-02-22T05:01:31.181Z,994.38
2019-02-22T05:02:31.143Z,994.36
2019-02-22T05:03:31.139Z,994.35
2019-02-22T05:04:31.125Z,994.40
2019-02-22T05:05:31.112Z,994.38
2019-02-22T05:06:31.103Z,994.38
2019-02-22T05:07:31.150Z,994.44
2019-02-22T05:08:31.085Z,994.42
2019-02-22T05:09:31.085Z,994.42
2019-02-22T05:10:31.061Z,994.46
2019-02-22T05:11:31.054Z,994.50
2019-02-22T05:12:31.039Z,994.47
2019-02-22T05:13:31.038Z,994.45
2019-02-22T05:14:31.019Z,994.44
2019-02-22T05:15:31.008Z,994.46
2019-02-22T05:16:31.028Z,994.45
2019-02-22T05:17:38.046Z,994.41
2019-02-22T05:18:31.061Z,994.45
2019-02-22T05:19:30.987Z,994.49
2019-02-22T05:20:30.958Z,994.44
2019-02-22T05:21:30.938Z,994.51
2019-02-22T05:22:30.941Z,994.45
2019-02-22T05:23:30.934Z,994.45
2019-02-22T05:24:30.920Z,994.54
2019-02-22T05:25:30.912Z,994.49
2019-02-22T05:26:30.892Z,994.56
2019-02-22T05:27:30.889Z,994.52
2019-02-22T05:28:30.867Z,994.53
2019-02-22T05:29:30.853Z,994.51
2019-02-22T05:30:30.854Z,994.42
2019-02-22T05:31:30.851Z,994.47
2019-02-22T05:32:30.822Z,994.57
2019-02-22T05:33:30.879Z,994.49
2019-02-22T05:34:30.805Z,994.44
2019-02-22T05:35:30.789Z,994.51
2019-02-22T05:36:30.779Z,994.44
2019-02-22T05:37:30.792Z,994.49
2019-02-22T05:38:30.765Z,994.50
2019-02-22T05:39:30.751Z,994.45
2019-02-22T05:40:30.735Z,994.51
2019-02-22T05:41:30.730Z,994.37
2019-02-22T05:42:30.716Z,994.46
2019-02-22T05:43:30.728Z,994.44
2019-02-22T05:44:30.718Z,994.46
2019-02-22T05:45:30.719Z,994.44
2019-02-22T05:46:30.684Z,994.51
2019-02-22T05:47:30.685Z,994.51
2019-02-22T05:48:30.659Z,994.51
2019-02-22T05:49:30.708Z,994.48
2019-02-22T05:50:30.638Z,994.52
2019-02-22T05:51:30.658Z,994.49
2019-02-22T05:52:30.612Z,994.55
2019-02-22T05:53:30.623Z,994.52
2019-02-22T05:54:30.587Z,994.56
2019-02-22T05:55:30.603Z,994.55
2019-02-22T05:56:30.568Z,994.54
2019-02-22T05:57:30.567Z,994.53
2019-02-22T05:58:30.552Z,994.58
2019-02-22T05:59:30.552Z,994.65
2019-02-22T06:00:30.530Z,994.68
2019-02-22T06:01:30.571Z,994.61
2019-02-22T06:02:30.511Z,994.61
2019-02-22T06:03:30.511Z,994.66
2019-02-22T06:04:30.483Z,994.65
2019-02-22T06:05:30.486Z,994.69
2019-02-22T06:06:30.474Z,994.68
2019-02-22T06:07:30.509Z,994.71
2019-02-22T06:08:30.444Z,994.68
2019-02-22T06:09:30.431Z,994.80
2019-02-22T06:10:30.445Z,994.75
2019-02-22T06:11:30.448Z,994.71
2019-02-22T06:12:34.596Z,994.75
2019-02-22T06:13:30.418Z,994.83
2019-02-22T06:14:30.376Z,994.75
2019-02-22T06:15:31.558Z,994.77
2019-02-22T06:16:30.361Z,994.82
2019-02-22T06:17:30.351Z,994.80
2019-02-22T06:18:30.339Z,994.82
2019-02-22T06:19:30.390Z,994.81
2019-02-22T06:20:30.309Z,994.82
2019-02-22T06:21:30.335Z,994.90
2019-02-22T06:22:30.369Z,994.97
2019-02-22T06:23:30.346Z,994.99
2019-02-22T06:24:30.272Z,994.96
2019-02-22T06:25:30.403Z,994.95
2019-02-22T06:26:30.498Z,994.94
2019-02-22T06:27:30.237Z,994.95
2019-02-22T06:28:30.232Z,995.01
2019-02-22T06:29:30.228Z,994.87
2019-02-22T06:30:30.208Z,994.94
2019-02-22T06:31:30.224Z,994.94
2019-02-22T06:32:30.196Z,994.93
2019-02-22T06:33:30.179Z,994.96
2019-02-22T06:34:30.166Z,994.98
2019-02-22T06:35:30.176Z,994.97
2019-02-22T06:36:30.159Z,995.01
2019-02-22T06:37:30.147Z,995.00
2019-02-22T06:38:30.146Z,995.02
2019-02-22T06:39:30.120Z,995.09
2019-02-22T06:40:30.104Z,995.05
2019-02-22T06:41:30.133Z,995.06
2019-02-22T06:42:30.078Z,995.09
2019-02-22T06:43:30.078Z,995.07
2019-02-22T06:44:30.055Z,995.10
2019-02-22T06:45:30.042Z,995.11
2019-02-22T06:46:30.040Z,995.12
2019-02-22T06:47:30.029Z,995.05
2019-02-22T06:48:30.013Z,995.05
2019-02-22T06:49:30.104Z,995.07
2019-02-22T06:50:33.640Z,995.05
2019-02-22T06:51:29.978Z,995.06
2019-02-22T06:52:29.965Z,995.07
2019-02-22T06:53:29.958Z,995.13
2019-02-22T06:54:29.975Z,995.10
2019-02-22T06:55:29.953Z,995.10
2019-02-22T06:56:29.948Z,995.13
2019-02-22T06:57:29.919Z,995.15
2019-02-22T06:58:29.903Z,995.20
2019-02-22T06:59:29.894Z,995.18
2019-02-22T07:00:29.981Z,995.11
2019-02-22T07:01:29.894Z,995.24
2019-02-22T07:02:29.885Z,995.19
2019-02-22T07:03:29.846Z,995.20
2019-02-22T07:04:29.859Z,995.20
2019-02-22T07:05:29.828Z,995.23
2019-02-22T07:06:29.823Z,995.25
2019-02-22T07:07:29.824Z,995.20
2019-02-22T07:08:29.795Z,995.16
2019-02-22T07:09:29.777Z,995.18
2019-02-22T07:10:29.793Z,995.22
2019-02-22T07:11:29.759Z,995.19
2019-02-22T07:12:29.775Z,995.19
2019-02-22T07:13:29.763Z,995.26
2019-02-22T07:14:29.732Z,995.23
2019-02-22T07:15:29.726Z,995.28
2019-02-22T07:16:29.724Z,995.24
2019-02-22T07:17:29.702Z,995.23
2019-02-22T07:18:29.681Z,995.32
2019-02-22T07:19:29.694Z,995.27
2019-02-22T07:20:29.674Z,995.29
2019-02-22T07:21:40.369Z,995.29
2019-02-22T07:22:30.659Z,995.22
2019-02-22T07:23:29.627Z,995.28
2019-02-22T07:24:29.642Z,995.27
2019-02-22T07:25:29.634Z,995.26
2019-02-22T07:26:29.598Z,995.20
2019-02-22T07:27:29.598Z,995.20
2019-02-22T07:28:29.591Z,995.22
2019-02-22T07:29:29.563Z,995.21
2019-02-22T07:30:29.552Z,995.20
2019-02-22T07:31:29.560Z,995.18
2019-02-22T07:32:29.530Z,995.22
2019-02-22T07:33:29.522Z,995.25
2019-02-22T07:34:29.511Z,995.27
2019-02-22T07:35:29.498Z,995.26
2019-02-22T07:36:29.488Z,995.32
2019-02-22T07:37:29.498Z,995.39
2019-02-22T07:38:29.462Z,995.37
2019-02-22T07:39:29.467Z,995.31
2019-02-22T07:40:29.446Z,995.36
2019-02-22T07:41:29.433Z,995.36
2019-02-22T07:42:29.423Z,995.36
2019-02-22T07:43:29.436Z,995.40
2019-02-22T07:44:29.401Z,995.36
2019-02-22T07:45:29.391Z,995.43
2019-02-22T07:46:29.382Z,995.36
2019-02-22T07:47:29.404Z,995.35
2019-02-22T07:48:29.364Z,995.32
2019-02-22T07:49:29.364Z,995.35
2019-02-22T07:50:29.337Z,995.38
2019-02-22T07:51:29.327Z,995.37
2019-02-22T07:52:29.315Z,995.35
2019-02-22T07:53:29.305Z,995.36
2019-02-22T07:54:29.292Z,995.46
2019-02-22T07:55:29.298Z,995.38
2019-02-22T07:56:29.274Z,995.32
2019-02-22T07:57:29.262Z,995.38
2019-02-22T07:58:29.253Z,995.35
2019-02-22T07:59:29.241Z,995.35
2019-02-22T08:00:29.227Z,995.38
2019-02-22T08:01:29.238Z,995.40
2019-02-22T08:02:29.205Z,995.35
2019-02-22T08:03:29.195Z,995.38
2019-02-22T08:04:29.186Z,995.32
2019-02-22T08:05:29.173Z,995.26
2019-02-22T08:06:29.160Z,995.30
2019-02-22T08:07:29.166Z,995.29
2019-02-22T08:08:29.143Z,995.33
2019-02-22T08:09:29.134Z,995.35
2019-02-22T08:10:29.125Z,995.34
2019-02-22T08:11:29.109Z,995.37
2019-02-22T08:12:29.099Z,995.37
2019-02-22T08:13:29.102Z,995.36
2019-02-22T08:14:29.076Z,995.41
2019-02-22T08:15:29.063Z,995.40
2019-02-22T08:16:29.054Z,995.32
2019-02-22T08:17:29.044Z,995.33
2019-02-22T08:18:29.031Z,995.35
2019-02-22T08:19:29.037Z,995.34
2019-02-22T08:20:29.013Z,995.35
2019-02-22T08:21:29.000Z,995.24
2019-02-22T08:22:28.990Z,995.31
2019-02-22T08:23:28.981Z,995.25
2019-02-22T08:24:28.968Z,995.31
2019-02-22T08:25:28.974Z,995.32
2019-02-22T08:26:28.948Z,995.34
2019-02-22T08:27:28.937Z,995.36
2019-02-22T08:28:28.929Z,995.34
2019-02-22T08:29:28.916Z,995.33
2019-02-22T08:30:28.907Z,995.35
2019-02-22T08:31:28.910Z,995.42
2019-02-22T08:32:28.884Z,995.38
2019-02-22T08:33:28.873Z,995.45
2019-02-22T08:34:28.864Z,995.43
2019-02-22T08:35:28.852Z,995.44
2019-02-22T08:36:28.839Z,995.50
2019-02-22T08:37:28.848Z,995.45
2019-02-22T08:38:28.825Z,995.44
2019-02-22T08:39:28.809Z,995.50
2019-02-22T08:40:28.797Z,995.45
2019-02-22T08:41:28.785Z,995.50
2019-02-22T08:42:28.775Z,995.49
2019-02-22T08:43:31.828Z,995.54
2019-02-22T08:44:28.753Z,995.56
2019-02-22T08:45:28.746Z,995.58
2019-02-22T08:46:28.727Z,995.59
2019-02-22T08:47:28.722Z,995.60
2019-02-22T08:48:28.709Z,995.63
2019-02-22T08:49:28.711Z,995.59
2019-02-22T08:50:28.692Z,995.61
2019-02-22T08:51:28.674Z,995.58
2019-02-22T08:52:28.664Z,995.62
2019-02-22T08:53:28.652Z,995.64
2019-02-22T08:54:28.642Z,995.63
2019-02-22T08:55:28.649Z,995.55
2019-02-22T08:56:28.623Z,995.60
2019-02-22T08:57:28.610Z,995.68
2019-02-22T08:58:28.602Z,995.61
2019-02-22T08:59:28.587Z,995.55
2019-02-22T09:00:28.575Z,995.64
2019-02-22T09:01:28.582Z,995.63
2019-02-22T09:02:28.553Z,995.62
2019-02-22T09:03:28.543Z,995.70
2019-02-22T09:04:28.579Z,995.73
2019-02-22T09:05:28.520Z,995.78
2019-02-22T09:06:28.514Z,995.83
2019-02-22T09:07:28.565Z,995.85
2019-02-22T09:08:28.536Z,995.86
2019-02-22T09:09:28.480Z,995.83
2019-02-22T09:10:28.468Z,995.86
2019-02-22T09:11:28.457Z,995.83
2019-02-22T09:12:28.453Z,995.89
2019-02-22T09:13:28.450Z,995.90
2019-02-22T09:14:28.426Z,995.88
2019-02-22T09:15:28.416Z,995.91
2019-02-22T09:16:28.403Z,995.89
2019-02-22T09:17:28.391Z,995.92
2019-02-22T09:18:28.381Z,995.85
2019-02-22T09:19:28.386Z,995.85
2019-02-22T09:20:28.358Z,995.88
2019-02-22T09:21:28.348Z,995.80
2019-02-22T09:22:28.337Z,995.74
2019-02-22T09:23:28.329Z,995.72
2019-02-22T09:24:28.313Z,995.70
2019-02-22T09:25:28.323Z,995.79
2019-02-22T09:26:28.295Z,995.86
2019-02-22T09:27:28.281Z,995.83
2019-02-22T09:28:28.272Z,995.85
2019-02-22T09:29:28.265Z,995.76
2019-02-22T09:30:28.249Z,995.77
2019-02-22T09:31:28.256Z,995.85
2019-02-22T09:32:28.227Z,995.86
2019-02-22T09:33:28.217Z,995.93
2019-02-22T09:34:28.204Z,995.96
2019-02-22T09:35:28.209Z,995.99
2019-02-22T09:36:28.185Z,995.97
2019-02-22T09:37:28.188Z,995.98
2019-02-22T09:38:28.162Z,995.98
2019-02-22T09:39:28.151Z,995.99
2019-02-22T09:40:28.137Z,996.02
2019-02-22T09:41:28.131Z,996.03
2019-02-22T09:42:28.118Z,995.98
2019-02-22T09:43:28.121Z,995.99
2019-02-22T09:44:28.095Z,995.99
2019-02-22T09:45:28.085Z,995.99
2019-02-22T09:46:28.077Z,995.96
2019-02-22T09:47:28.074Z,996.02
2019-02-22T09:48:28.053Z,995.98
2019-02-22T09:49:28.064Z,996.02
2019-02-22T09:50:28.026Z,995.98
2019-02-22T09:51:28.029Z,996.15
2019-02-22T09:52:28.009Z,996.08
2019-02-22T09:53:28.003Z,996.07
2019-02-22T09:54:27.984Z,996.05
2019-02-22T09:55:27.990Z,996.07
2019-02-22T09:56:27.958Z,995.98
2019-02-22T09:57:27.952Z,996.07
2019-02-22T09:58:27.942Z,996.08
2019-02-22T09:59:27.929Z,996.09
2019-02-22T10:00:27.920Z,996.08
2019-02-22T10:01:27.926Z,996.07
2019-02-22T10:02:27.901Z,996.06
2019-02-22T10:03:27.891Z,996.03
2019-02-22T10:04:27.884Z,996.00
2019-02-22T10:05:27.864Z,996.02
2019-02-22T10:06:27.854Z,996.04
2019-02-22T10:07:27.862Z,996.00
2019-02-22T10:08:27.831Z,995.91
2019-02-22T10:09:27.822Z,996.00
2019-02-22T10:10:27.812Z,996.01
2019-02-22T10:11:27.799Z,996.04
2019-02-22T10:12:27.786Z,996.05
2019-02-22T10:13:28.016Z,996.12
2019-02-22T10:14:28.609Z,996.03
2019-02-22T10:15:28.319Z,995.99
2019-02-22T10:16:27.784Z,995.96
2019-02-22T10:17:27.732Z,996.00
2019-02-22T10:18:27.722Z,996.00
2019-02-22T10:19:27.725Z,995.97
2019-02-22T10:20:27.706Z,995.91
2019-02-22T10:21:27.687Z,995.97
2019-02-22T10:22:27.678Z,995.94
2019-02-22T10:23:27.670Z,995.97
2019-02-22T10:24:27.655Z,996.01
2019-02-22T10:25:27.666Z,996.00
2019-02-22T10:26:27.634Z,995.97
2019-02-22T10:27:27.633Z,995.98
2019-02-22T10:28:27.617Z,995.97
2019-02-22T10:29:27.601Z,995.91
2019-02-22T10:30:27.595Z,996.00
2019-02-22T10:31:27.598Z,995.96
2019-02-22T10:32:27.615Z,995.86
2019-02-22T10:33:36.416Z,995.87
2019-02-22T10:34:28.545Z,995.92
2019-02-22T10:35:27.545Z,995.99
2019-02-22T10:36:27.531Z,995.98
2019-02-22T10:37:27.538Z,995.94
2019-02-22T10:38:27.509Z,995.90
2019-02-22T10:39:27.494Z,995.94
2019-02-22T10:40:27.482Z,995.93
2019-02-22T10:41:27.469Z,995.83
2019-02-22T10:42:27.460Z,995.87
2019-02-22T10:43:27.463Z,995.78
2019-02-22T10:44:27.438Z,995.85
2019-02-22T10:45:27.427Z,995.76
2019-02-22T10:46:27.415Z,995.79
2019-02-22T10:47:27.408Z,995.75
2019-02-22T10:48:27.439Z,995.83
2019-02-22T10:49:27.402Z,995.70
2019-02-22T10:50:27.373Z,995.73
2019-02-22T10:51:27.364Z,995.61
2019-02-22T10:52:27.367Z,995.61
2019-02-22T10:53:27.341Z,995.62
2019-02-22T10:54:27.327Z,995.59
2019-02-22T10:55:27.341Z,995.60
2019-02-22T10:56:28.296Z,995.60
2019-02-22T10:57:27.293Z,995.57
2019-02-22T10:58:27.283Z,995.61
2019-02-22T10:59:27.289Z,995.61
2019-02-22T11:00:27.262Z,995.62
2019-02-22T11:01:27.272Z,995.54
2019-02-22T11:02:27.240Z,995.56
2019-02-22T11:03:27.231Z,995.63
2019-02-22T11:04:27.218Z,995.61
2019-02-22T11:05:27.208Z,995.52
2019-02-22T11:06:27.195Z,995.48
2019-02-22T11:07:27.201Z,995.57
2019-02-22T11:08:27.173Z,995.54
2019-02-22T11:09:27.163Z,995.56
2019-02-22T11:10:27.159Z,995.57
2019-02-22T11:11:27.140Z,995.59
2019-02-22T11:12:27.131Z,995.60
2019-02-22T11:13:27.402Z,995.64
2019-02-22T11:14:30.161Z,995.69
2019-02-22T11:15:27.156Z,995.62
2019-02-22T11:16:27.448Z,995.62
2019-02-22T11:17:28.207Z,995.57
2019-02-22T11:18:27.194Z,995.69
2019-02-22T11:19:27.508Z,995.63
2019-02-22T11:20:27.401Z,995.72
2019-02-22T11:21:27.233Z,995.73
2019-02-22T11:22:27.092Z,995.71
2019-02-22T11:23:29.325Z,995.69
2019-02-22T11:24:27.147Z,995.65
2019-02-22T11:25:27.069Z,995.75
2019-02-22T11:26:28.088Z,995.64
2019-02-22T11:27:28.027Z,995.64
2019-02-22T11:28:27.293Z,995.72
2019-02-22T11:29:27.025Z,995.63
2019-02-22T11:30:27.268Z,995.61
2019-02-22T11:31:27.076Z,995.70
2019-02-22T11:32:26.983Z,995.59
2019-02-22T11:33:27.018Z,995.58
2019-02-22T11:34:27.279Z,995.60
2019-02-22T11:35:27.019Z,995.68
2019-02-22T11:36:27.237Z,995.63
2019-02-22T11:37:27.433Z,995.63
2019-02-22T11:38:26.999Z,995.64
2019-02-22T11:39:27.028Z,995.55
2019-02-22T11:40:26.925Z,995.66
2019-02-22T11:41:27.412Z,995.67
2019-02-22T11:42:27.026Z,995.59
2019-02-22T11:43:26.928Z,995.66
2019-02-22T11:44:26.910Z,995.61
2019-02-22T11:45:26.890Z,995.57
2019-02-22T11:46:26.965Z,995.51
2019-02-22T11:47:26.884Z,995.60
2019-02-22T11:48:26.806Z,995.49
2019-02-22T11:49:27.651Z,995.56
2019-02-22T11:50:26.940Z,995.59
2019-02-22T11:51:26.799Z,995.56
2019-02-22T11:52:28.927Z,995.50
2019-02-22T11:53:26.774Z,995.55
2019-02-22T11:54:27.469Z,995.55
2019-02-22T11:55:26.882Z,995.52
2019-02-22T11:56:27.048Z,995.59
2019-02-22T11:57:26.713Z,995.58
2019-02-22T11:58:26.745Z,995.63
2019-02-22T11:59:26.743Z,995.62
2019-02-22T12:00:26.732Z,995.53
2019-02-22T12:01:26.777Z,995.54
2019-02-22T12:02:26.818Z,995.51
2019-02-22T12:03:26.706Z,995.54
2019-02-22T12:04:26.652Z,995.49
2019-02-22T12:05:26.871Z,995.59
2019-02-22T12:06:26.912Z,995.63
2019-02-22T12:07:26.883Z,995.60
2019-02-22T12:08:26.670Z,995.65
2019-02-22T12:09:26.641Z,995.62
2019-02-22T12:10:26.565Z,995.51
2019-02-22T12:11:26.653Z,995.45
2019-02-22T12:12:26.549Z,995.41
2019-02-22T12:13:26.604Z,995.38
2019-02-22T12:14:26.581Z,995.37
2019-02-22T12:15:26.709Z,995.44
2019-02-22T12:16:27.391Z,995.41
2019-02-22T12:17:26.557Z,995.44
2019-02-22T12:18:26.473Z,995.42
2019-02-22T12:19:26.531Z,995.30
2019-02-22T12:20:26.533Z,995.37
2019-02-22T12:21:26.533Z,995.31
2019-02-22T12:22:26.495Z,995.39
2019-02-22T12:23:26.413Z,995.38
2019-02-22T12:24:26.447Z,995.39
2019-02-22T12:25:26.995Z,995.48
2019-02-22T12:26:26.370Z,995.46
2019-02-22T12:27:26.428Z,995.42
2019-02-22T12:28:26.607Z,995.39